Latest Weather Observations for Lord Howe Island

IDN60801

Issued at 3:33 am EDT Monday 2 March 2015 (issued every 30 minutes, with the page automatically refreshed every 10 minutes)

About weather observations | Map of weather stations | Latest weather observations for NSW | Other Formats
Station Details ID: 200839 Name: LORD HOWE ISLAND AERO Lat: -31.54 Lon: 159.08 Height: 5.0 m
Data from the previous 72 hours. | See also: Recent months at Lord Howe Island
Date/Time
EDT
Temp
°C
App
Temp
°C
Dew
Point
Rel
Hum
%
Delta-T
°C
Wind Press
QNH
hPa
Press
MSL
hPa
Rain
since 9 am
mm
Dir
 
Spd
km/h
Gust
km/h
Spd
kts
Gust
kts
02/03:30am 20.8 24.5 19.9 95 0.6 CALM 0 0 0 0 1010.8 - 0.0
02/03:00am 21.9 24.8 20.7 93 0.8 SSW 6 7 3 4 1011.1 1011.1 0.0
02/02:30am 22.0 25.0 20.9 93 0.7 S 6 7 3 4 1011.4 - 0.0
02/02:10am 22.6 25.5 21.1 91 1.0 WSW 7 9 4 5 1011.4 - 0.0
02/02:00am 23.0 26.2 21.3 90 1.1 SW 6 9 3 5 1011.5 - 0.0
02/01:30am 22.8 25.8 20.8 88 1.3 S 6 9 3 5 1011.8 - 0.0
02/01:09am 23.0 26.0 20.9 88 1.4 SE 6 7 3 4 1011.9 - 0.0
02/01:00am 22.9 25.9 20.8 88 1.4 S 6 7 3 4 1011.9 - 0.0
02/12:30am 23.2 25.7 21.1 88 1.4 SE 9 11 5 6 1011.9 - 0.0
02/12:00am 23.1 25.8 21.4 90 1.1 E 9 17 5 9 1011.6 1011.6 0.0
 
Date/Time
EDT
Temp
°C
App
Temp
°C
Dew
Point
Rel
Hum
%
Delta-T
°C
Wind Press
QNH
hPa
Press
MSL
hPa
Rain
since 9 am
mm
Dir
 
Spd
km/h
Gust
km/h
Spd
kts
Gust
kts
01/11:55pm 23.2 25.0 21.2 88 1.3 E 13 17 7 9 1011.5 - 0.0
01/11:40pm 23.3 26.1 21.6 90 1.1 E 9 19 5 10 1011.5 - 0.0
01/11:38pm 23.1 26.2 21.4 90 1.1 E 7 13 4 7 1011.5 - 0.0
01/11:30pm 23.0 25.3 21.3 90 1.1 E 11 15 6 8 1011.4 - 0.0
01/11:19pm 23.2 25.6 21.5 90 1.1 E 11 15 6 8 1011.2 - 0.0
01/11:00pm 22.7 25.5 20.9 89 1.2 SE 7 7 4 4 1011.5 - 0.0
01/10:30pm 22.7 25.7 20.9 89 1.2 SE 6 7 3 4 1011.7 - 0.0
01/10:07pm 23.4 25.7 21.4 88 1.3 ENE 11 15 6 8 1011.7 - 0.0
01/10:00pm 23.4 25.3 21.3 88 1.4 ENE 13 17 7 9 1011.7 - 0.0
01/09:53pm 23.5 25.1 21.4 88 1.4 ENE 15 19 8 10 1011.6 - 0.0
01/09:30pm 23.5 25.1 21.4 88 1.4 ENE 15 20 8 11 1011.2 - 0.0
01/09:00pm 23.7 24.9 21.4 87 1.5 ENE 17 19 9 10 1011.1 1011.1 0.0
01/08:30pm 23.6 24.8 21.5 88 1.4 E 17 22 9 12 1010.9 - 0.0
01/08:11pm 23.6 24.2 21.0 85 1.7 ENE 19 22 10 12 1010.9 - 0.0
01/08:00pm 23.6 24.7 21.3 87 1.5 E 17 20 9 11 1010.9 - 0.0
01/07:35pm 23.6 25.1 21.2 86 1.6 ENE 15 19 8 10 1010.7 - 0.0
01/07:30pm 23.6 24.7 21.3 87 1.5 ENE 17 20 9 11 1010.7 - 0.0
01/07:00pm 23.7 24.7 21.1 85 1.7 ENE 17 19 9 10 1010.6 - 0.0
01/06:30pm 24.0 24.5 20.9 83 2.0 ENE 19 20 10 11 1010.5 - 0.0
01/06:00pm 24.4 24.9 21.1 82 2.2 ENE 20 24 11 13 1010.2 1010.2 0.0
01/05:30pm 24.7 25.2 21.1 80 2.4 ENE 20 24 11 13 1010.3 - 0.0
01/05:00pm 25.1 25.5 21.0 78 2.7 ENE 20 24 11 13 1010.5 - 0.0
01/04:30pm 25.7 26.4 21.5 77 2.8 ENE 20 24 11 13 1010.5 - 0.0
01/04:00pm 25.4 25.9 21.2 77 2.8 NE 20 24 11 13 1010.7 - 0.0
01/03:30pm 25.8 26.6 21.3 76 3.0 ENE 19 24 10 13 1010.8 - 0.0
01/03:00pm 26.1 27.8 21.6 76 3.0 ENE 15 19 8 10 1011.0 1011.0 0.0
01/02:30pm 25.7 26.9 21.5 77 2.8 NE 17 20 9 11 1011.3 - 0.0
01/02:00pm 26.3 27.8 22.0 77 2.9 ENE 17 20 9 11 1011.6 - 0.0
01/01:30pm 25.9 26.6 21.2 75 3.1 ENE 19 20 10 11 1011.9 - 0.0
01/01:00pm 25.8 26.6 21.4 76 2.9 ENE 19 22 10 12 1012.0 - 0.0
01/12:30pm 25.8 27.0 21.4 76 2.9 ENE 17 22 9 12 1012.2 - 0.0
01/12:00pm 25.8 26.8 21.7 78 2.7 ENE 19 22 10 12 1012.4 1012.4 0.0
01/11:30am 25.8 26.4 21.3 76 3.0 ENE 20 26 11 14 1012.6 - 0.0
01/11:00am 25.6 25.7 21.2 76 2.9 ENE 22 26 12 14 1012.9 - 0.0
01/10:30am 25.3 24.8 20.7 75 3.0 ENE 24 28 13 15 1013.1 - 0.0
01/10:00am 25.3 24.7 20.4 74 3.2 ENE 24 28 13 15 1013.0 - 0.0
01/09:30am 25.2 24.7 20.8 76 2.9 ENE 24 30 13 16 1013.0 - 0.0
01/09:00am 24.7 24.4 20.4 77 2.8 ENE 22 28 12 15 1012.9 1012.9 0.0
01/08:30am 24.6 24.2 20.1 76 2.9 ENE 22 28 12 15 1012.9 - 0.0
01/07:30am 23.8 23.1 20.3 81 2.3 ENE 24 28 13 15 1012.5 - 0.0
01/07:00am 23.4 23.5 20.3 83 2.0 ENE 20 26 11 14 1012.4 - 0.0
01/05:30am 22.7 23.0 19.7 83 1.9 ENE 17 22 9 12 1012.0 - 0.0
01/05:00am 22.8 23.1 19.7 83 2.0 ENE 17 24 9 13 1011.9 - 0.0
01/04:30am 22.8 23.2 19.8 83 1.9 ENE 17 22 9 12 1012.0 - 0.0
01/04:00am 22.8 23.0 19.3 80 2.2 ENE 17 22 9 12 1012.3 - 0.0
01/03:30am 22.8 22.8 19.7 83 2.0 ENE 19 24 10 13 1012.4 - 0.0
01/03:00am 22.8 22.7 20.0 84 1.8 ENE 20 24 11 13 1012.5 1012.5 0.0
01/02:38am 22.9 23.0 19.9 83 1.9 ENE 19 22 10 12 1012.6 - 0.0
01/02:30am 22.9 23.1 20.1 84 1.8 ENE 19 24 10 13 1012.6 - 0.0
01/02:09am 22.8 23.3 20.0 84 1.8 ENE 17 20 9 11 1012.8 - 0.0
01/02:00am 22.9 23.3 19.9 83 1.9 ENE 17 20 9 11 1013.0 - 0.0
01/01:30am 22.9 22.9 20.1 84 1.8 ENE 20 24 11 13 1013.2 - 0.0
01/01:00am 22.9 22.4 19.9 83 1.9 ENE 22 28 12 15 1013.3 - 0.0
01/12:30am 23.0 22.9 19.9 83 2.0 ENE 20 28 11 15 1013.5 - 0.0
01/12:00am 23.0 23.2 20.1 84 1.9 ENE 19 24 10 13 1013.6 1013.6 0.0
 
Date/Time
EDT
Temp
°C
App
Temp
°C
Dew
Point
Rel
Hum
%
Delta-T
°C
Wind Press
QNH
hPa
Press
MSL
hPa
Rain
since 9 am
mm
Dir
 
Spd
km/h
Gust
km/h
Spd
kts
Gust
kts
28/11:30pm 22.9 22.6 19.6 81 2.1 ENE 20 24 11 13 1013.5 - 0.0
28/11:00pm 23.0 22.4 19.7 82 2.1 ENE 22 28 12 15 1013.3 - 0.0
28/10:30pm 23.1 22.2 19.8 82 2.1 ENE 24 30 13 16 1013.5 - 0.0
28/10:00pm 23.1 22.1 19.7 81 2.2 ENE 24 28 13 15 1013.8 - 0.0
28/09:30pm 23.1 21.9 19.2 79 2.5 ENE 24 28 13 15 1013.8 - 0.0
28/09:00pm 23.3 23.1 19.7 80 2.3 ENE 20 28 11 15 1014.0 1014.0 0.0
28/08:30pm 23.3 22.6 19.4 79 2.5 ENE 22 28 12 15 1013.7 - 0.0
28/08:00pm 23.0 22.7 19.2 79 2.4 ENE 19 22 10 12 1013.4 - 0.0
28/07:30pm 23.2 22.3 19.1 78 2.6 ENE 22 28 12 15 1013.1 - 0.0
28/07:04pm 23.1 22.5 18.8 77 2.7 ENE 20 26 11 14 1013.0 - 0.0
28/07:00pm 23.2 22.1 18.6 75 2.9 ENE 22 28 12 15 1012.9 - 0.0
28/06:46pm 23.4 23.6 19.3 78 2.6 ENE 17 24 9 13 1012.7 - 0.0
28/06:30pm 23.5 23.1 18.8 75 3.0 ENE 19 24 10 13 1012.6 - 0.0
28/06:00pm 24.0 23.6 18.8 72 3.3 ENE 19 22 10 12 1012.6 1012.6 0.0
28/05:30pm 24.6 24.5 18.8 70 3.7 E 17 20 9 11 1012.7 - 0.0
28/05:00pm 24.9 24.5 18.9 69 3.8 E 19 24 10 13 1012.7 - 0.0
28/04:30pm 25.1 24.6 19.2 70 3.8 E 20 28 11 15 1012.4 - 0.0
28/04:00pm 25.5 25.1 19.3 68 4.0 ENE 20 28 11 15 1012.6 - 0.0
28/03:30pm 25.7 25.5 19.3 67 4.1 E 19 24 10 13 1012.6 - 0.0
28/03:00pm 25.5 25.2 19.6 70 3.8 ENE 20 26 11 14 1012.7 1012.7 0.0
28/02:30pm 25.5 25.3 19.3 68 4.0 ENE 19 26 10 14 1012.7 - 0.0
28/02:00pm 25.5 24.1 18.8 66 4.3 ENE 24 30 13 16 1012.8 - 0.0
28/01:30pm 25.3 24.2 18.7 67 4.2 ENE 22 28 12 15 1013.1 - 0.0
28/01:00pm 25.3 24.7 18.9 67 4.1 ENE 20 26 11 14 1013.5 - 0.0
28/12:30pm 25.4 24.7 18.6 66 4.3 ENE 20 22 11 12 1013.8 - 0.0
28/12:00pm 24.5 24.1 18.1 67 4.0 ENE 17 20 9 11 1014.1 1014.1 0.0
28/11:30am 25.3 25.0 18.3 65 4.4 ENE 17 20 9 11 1014.3 - 0.0
28/11:00am 24.9 24.4 17.7 64 4.5 ENE 17 22 9 12 1014.4 - 0.0
28/10:30am 25.0 23.7 18.2 66 4.3 ENE 22 28 12 15 1014.3 - 0.0
28/10:00am 24.6 22.9 17.2 63 4.6 ENE 22 28 12 15 1014.0 - 0.0
28/09:30am 24.5 23.0 17.6 65 4.3 ENE 22 26 12 14 1014.0 - 0.0
28/09:00am 24.3 23.0 17.2 64 4.4 ENE 20 24 11 13 1014.1 1014.1 0.0
28/08:30am 23.9 22.3 16.5 63 4.5 ENE 20 26 11 14 1013.9 - 0.0
28/08:00am 23.6 22.3 17.3 67 3.9 ENE 20 24 11 13 1013.5 - 0.0
28/07:30am 22.9 22.5 18.1 74 3.0 ENE 17 22 9 12 1013.4 - 0.0
28/07:00am 22.6 21.8 17.9 75 2.9 ENE 19 22 10 12 1013.1 - 0.0
28/06:45am 22.6 21.2 17.9 75 2.9 ENE 22 26 12 14 1012.9 - 0.0
28/06:30am 22.4 21.8 18.4 78 2.5 ENE 19 24 10 13 1012.8 - 0.0
28/06:00am 22.2 21.2 17.9 76 2.7 ENE 20 24 11 13 1012.5 1012.5 0.0
28/05:30am 22.3 21.3 18.0 76 2.7 ENE 20 24 11 13 1012.1 - 0.0
28/05:00am 22.2 21.2 17.9 76 2.7 ENE 20 26 11 14 1012.1 - 0.0
28/04:30am 22.2 21.1 17.3 74 3.0 E 19 24 10 13 1011.8 - 0.0
28/04:00am 22.2 21.3 17.7 75 2.8 ENE 19 24 10 13 1011.9 - 0.0
28/03:30am 22.2 21.3 17.7 75 2.8 ENE 19 24 10 13 1011.9 - 0.0
28/03:00am 22.2 21.4 17.9 76 2.7 E 19 24 10 13 1012.0 1012.0 0.0
28/02:30am 22.4 20.9 17.6 74 3.0 ENE 22 28 12 15 1012.0 - 0.0
28/02:00am 22.4 21.2 17.6 74 3.0 ENE 20 26 11 14 1012.3 - 0.0
28/01:30am 22.6 20.4 17.9 75 2.9 ENE 26 30 14 16 1012.3 - 0.0
28/01:00am 22.5 21.1 18.0 75 2.8 ENE 22 28 12 15 1012.6 - 0.0
28/12:30am 22.6 20.8 17.9 75 2.9 ENE 24 28 13 15 1012.8 - 0.0
28/12:00am 22.7 20.7 18.2 76 2.8 ENE 26 32 14 17 1013.1 1013.1 0.0
 
Date/Time
EDT
Temp
°C
App
Temp
°C
Dew
Point
Rel
Hum
%
Delta-T
°C
Wind Press
QNH
hPa
Press
MSL
hPa
Rain
since 9 am
mm
Dir
 
Spd
km/h
Gust
km/h
Spd
kts
Gust
kts
27/11:41pm 22.8 21.6 18.3 76 2.8 ENE 22 28 12 15 1013.1 - 0.0
27/11:30pm 22.9 22.0 18.3 75 2.9 ENE 20 28 11 15 1013.1 - 0.0
27/11:26pm 23.0 22.5 18.7 77 2.7 ENE 19 26 10 14 1013.2 - 0.0
27/11:00pm 22.7 21.9 18.4 76 2.7 ENE 20 24 11 13 1013.2 - 0.0
27/10:30pm 22.7 21.5 18.4 76 2.7 ENE 22 26 12 14 1013.3 - 0.0
27/10:00pm 22.7 21.8 18.1 75 2.9 ENE 20 24 11 13 1013.3 - 0.0
27/09:30pm 22.8 21.3 17.8 73 3.1 ENE 22 26 12 14 1013.3 - 0.0
27/09:00pm 22.8 21.9 18.2 75 2.9 ENE 20 26 11 14 1013.2 1013.2 0.0
27/08:30pm 22.8 21.4 18.0 74 3.0 ENE 22 26 12 14 1012.7 - 0.0
27/08:00pm 22.7 21.6 17.7 73 3.1 ENE 20 24 11 13 1012.4 - 0.0
27/07:30pm 22.7 21.6 17.4 72 3.3 ENE 19 24 10 13 1012.1 - 0.0
27/07:00pm 22.8 21.6 17.5 72 3.3 ENE 20 24 11 13 1011.8 - 0.0
27/06:30pm 23.1 21.6 17.6 71 3.4 ENE 22 26 12 14 1011.4 - 0.0
27/06:00pm 23.3 22.1 17.5 70 3.6 ENE 20 26 11 14 1011.1 1011.1 0.0
27/05:30pm 23.4 22.0 16.9 67 4.0 E 20 24 11 13 1011.1 - 0.0
27/05:00pm 24.1 23.2 17.7 67 4.0 ENE 19 22 10 12 1011.1 - 0.0
27/04:30pm 24.4 23.6 17.9 67 4.1 ENE 19 24 10 13 1011.0 - 0.0
27/04:00pm 24.7 24.2 17.7 65 4.4 ENE 17 22 9 12 1011.1 - 0.0
27/03:30pm 24.6 23.5 17.4 64 4.5 ENE 19 22 10 12 1010.9 - 0.0
27/03:00pm 24.6 23.5 17.4 64 4.5 ENE 19 24 10 13 1011.1 1011.1 0.0
27/02:30pm 25.3 24.7 18.5 66 4.3 ENE 19 22 10 12 1011.2 - 0.0
27/02:00pm 24.9 24.1 18.1 66 4.3 ENE 19 22 10 12 1011.4 - 0.0
27/01:30pm 25.3 24.5 18.4 65 4.4 ENE 20 22 11 12 1011.7 - 0.0
27/01:00pm 25.3 24.6 18.2 64 4.5 NE 19 22 10 12 1012.0 - 0.0
27/12:30pm 25.1 24.2 18.1 65 4.4 NE 20 22 11 12 1012.0 - 0.0
27/12:00pm 24.5 23.6 17.8 66 4.2 ENE 19 22 10 12 1012.2 1012.2 0.0
27/11:30am 24.5 23.6 18.3 68 3.9 ENE 20 24 11 13 1012.2 - 0.0
27/11:00am 25.2 24.6 18.8 67 4.1 ENE 20 24 11 13 1012.2 - 0.0
27/10:30am 25.0 24.2 18.5 67 4.1 NE 20 24 11 13 1012.1 - 0.0
27/10:00am 24.6 23.8 17.9 66 4.2 ENE 19 22 10 12 1012.1 - 0.0
27/09:30am 24.3 23.6 18.3 69 3.8 ENE 19 22 10 12 1011.9 - 0.0
27/09:00am 24.5 23.7 18.5 69 3.8 ENE 20 24 11 13 1011.8 1011.8 0.0
27/08:30am 24.1 23.6 18.6 71 3.5 NE 19 20 10 11 1011.6 - 0.0
27/08:00am 23.7 23.5 18.6 73 3.2 NE 17 20 9 11 1011.5 - 0.0
27/07:59am 23.7 23.6 18.8 74 3.1 NE 17 20 9 11 1011.5 - 0.0
27/07:45am 23.5 23.6 19.1 76 2.8 NE 17 20 9 11 1011.2 - 0.0
27/07:30am 22.9 22.7 18.4 76 2.8 ENE 17 20 9 11 1011.1 - 0.0
27/07:00am 22.6 22.7 18.3 76 2.7 NE 15 19 8 10 1010.9 - 0.0
27/06:30am 22.2 22.0 18.4 79 2.4 ENE 17 19 9 10 1010.5 - 0.0
27/06:00am 22.0 22.2 18.5 80 2.2 ENE 15 17 8 9 1010.3 1010.3 0.0
27/05:30am 22.1 21.9 18.4 79 2.3 NE 17 20 9 11 1009.9 - 0.0
27/05:00am 22.2 22.4 18.5 79 2.3 NE 15 19 8 10 1009.8 - 0.0
27/04:30am 21.9 22.4 18.4 80 2.2 NE 13 15 7 8 1009.8 - 0.0
27/04:00am 21.9 22.4 18.4 80 2.2 NE 13 17 7 9 1009.8 - 0.0

Other Formats:

Comma delimited format used in spreadsheet applications
http://www.bom.gov.au/fwo/IDN60801/IDN60801.94995.axf

JavaScript Object Notation format (JSON) in row-major order
http://www.bom.gov.au/fwo/IDN60801/IDN60801.94995.json